TimeMDT,TemperatureF,Dew PointF,Humidity,Sea Level PressureIn,VisibilityMPH,Wind Direction,Wind SpeedMPH,Gust SpeedMPH,PrecipitationIn,Events,Conditions,WindDirDegrees,DateUTC
12:08 AM,44.6,42.8,93,30.77,0.2,ENE,10.4,-,N/A,Fog,Fog,70,2013-08-23 06:08:00
12:28 AM,44.6,42.8,93,30.77,0.2,ENE,10.4,-,N/A,Fog,Fog,70,2013-08-23 06:28:00
12:48 AM,44.6,42.8,93,30.77,0.2,ENE,6.9,-,N/A,Fog-Thunderstorm,Fog,60,2013-08-23 06:48:00
1:08 AM,44.6,42.8,93,30.77,0.2,Calm,Calm,-,N/A,Fog,Fog,0,2013-08-23 07:08:00
1:28 AM,44.6,42.8,93,30.77,0.8,SE,4.6,-,N/A,Thunderstorm,Overcast,130,2013-08-23 07:28:00
1:48 AM,44.6,42.8,93,30.77,0.2,East,8.1,-,N/A,Rain-Thunderstorm,Light Thunderstorms and Rain,90,2013-08-23 07:48:00
2:08 AM,44.6,42.8,93,30.77,0.2,East,3.5,-,N/A,Fog,Fog,100,2013-08-23 08:08:00
2:28 AM,44.6,41.0,87,30.77,10.0,SW,15.0,-,N/A,Rain-Thunderstorm,Thunderstorms and Rain,220,2013-08-23 08:28:00
2:48 AM,44.6,41.0,87,30.77,4.0,SSW,11.5,-,N/A,Rain,Light Rain,200,2013-08-23 08:48:00
3:08 AM,44.6,41.0,87,30.76,7.0,SSW,26.5,-,N/A,Rain,Rain,200,2013-08-23 09:08:00
3:28 AM,44.6,37.4,76,30.76,10.0,SSW,11.5,-,N/A,Rain,Light Rain,200,2013-08-23 09:28:00
3:48 AM,46.4,37.4,71,30.75,10.0,SSW,12.7,-,N/A,,Mostly Cloudy,210,2013-08-23 09:48:00
4:08 AM,46.4,37.4,71,30.75,10.0,SSW,18.4,26.5,N/A,Rain,Light Rain,200,2013-08-23 10:08:00
4:28 AM,46.4,37.4,71,30.74,10.0,SSW,13.8,-,N/A,,Overcast,200,2013-08-23 10:28:00
4:48 AM,44.6,37.4,76,30.74,10.0,SW,15.0,-,N/A,,Scattered Clouds,220,2013-08-23 10:48:00
5:08 AM,44.6,37.4,76,30.73,10.0,SW,16.1,-,N/A,,Clear,230,2013-08-23 11:08:00
5:28 AM,44.6,37.4,76,30.73,10.0,SW,17.3,-,N/A,,Clear,220,2013-08-23 11:28:00
5:48 AM,42.8,37.4,81,30.72,10.0,SW,18.4,-,N/A,,Clear,220,2013-08-23 11:48:00
6:08 AM,44.6,37.4,76,30.72,10.0,SW,17.3,-,N/A,,Clear,220,2013-08-23 12:08:00
6:28 AM,44.6,37.4,76,30.72,10.0,SSW,18.4,-,N/A,,Clear,210,2013-08-23 12:28:00
6:48 AM,44.6,37.4,76,30.73,10.0,SW,16.1,-,N/A,,Clear,220,2013-08-23 12:48:00
7:08 AM,44.6,37.4,76,30.73,10.0,SW,16.1,-,N/A,,Clear,230,2013-08-23 13:08:00
7:28 AM,44.6,37.4,76,30.73,10.0,SW,18.4,-,N/A,,Clear,230,2013-08-23 13:28:00
7:48 AM,44.6,37.4,76,30.74,10.0,SW,16.1,-,N/A,,Clear,220,2013-08-23 13:48:00
8:08 AM,44.6,39.2,81,30.74,10.0,SW,17.3,-,N/A,,Clear,220,2013-08-23 14:08:00
8:28 AM,44.6,39.2,81,30.74,10.0,SSW,15.0,-,N/A,,Clear,210,2013-08-23 14:28:00
8:48 AM,46.4,41.0,81,30.74,10.0,SSW,13.8,-,N/A,,Clear,200,2013-08-23 14:48:00
9:08 AM,50.0,41.0,71,30.75,10.0,SSW,10.4,-,N/A,,Clear,200,2013-08-23 15:08:00
9:28 AM,50.0,42.8,76,30.75,10.0,SSW,9.2,-,N/A,,Clear,210,2013-08-23 15:28:00
9:48 AM,51.8,42.8,71,30.75,10.0,SW,12.7,-,N/A,,Clear,220,2013-08-23 15:48:00
10:08 AM,51.8,41.0,67,30.75,10.0,SSW,15.0,19.6,N/A,,Clear,210,2013-08-23 16:08:00
10:28 AM,53.6,42.8,67,30.76,10.0,SSW,9.2,-,N/A,,Scattered Clouds,200,2013-08-23 16:28:00
10:48 AM,55.4,42.8,63,30.75,10.0,SSW,12.7,16.1,N/A,,Scattered Clouds,210,2013-08-23 16:48:00
11:08 AM,55.4,41.0,58,30.75,10.0,SSW,13.8,-,N/A,,Mostly Cloudy,200,2013-08-23 17:08:00
11:28 AM,55.4,41.0,58,30.75,10.0,SW,9.2,-,N/A,,Mostly Cloudy,230,2013-08-23 17:28:00
11:48 AM,55.4,41.0,58,30.74,10.0,SSW,12.7,17.3,N/A,,Mostly Cloudy,210,2013-08-23 17:48:00
12:08 PM,59.0,41.0,51,30.74,10.0,South,5.8,-,N/A,,Mostly Cloudy,170,2013-08-23 18:08:00
12:28 PM,59.0,41.0,51,30.73,10.0,SW,12.7,17.3,N/A,,Overcast,220,2013-08-23 18:28:00
12:48 PM,59.0,41.0,51,30.73,10.0,South,8.1,-,N/A,,Scattered Clouds,190,2013-08-23 18:48:00
1:08 PM,55.4,41.0,58,30.73,10.0,WSW,8.1,-,N/A,,Mostly Cloudy,240,2013-08-23 19:08:00
1:28 PM,55.4,41.0,58,30.72,10.0,Calm,Calm,-,N/A,,Overcast,0,2013-08-23 19:28:00
1:48 PM,55.4,41.0,58,30.71,10.0,WSW,23.0,31.1,N/A,Thunderstorm,Overcast,240,2013-08-23 19:48:00
2:08 PM,55.4,42.8,63,30.71,10.0,West,11.5,16.1,N/A,,Mostly Cloudy,280,2013-08-23 20:08:00
2:28 PM,55.4,39.2,54,30.71,10.0,WSW,15.0,20.7,N/A,Thunderstorm,Clear,240,2013-08-23 20:28:00
2:48 PM,57.2,39.2,51,30.71,10.0,West,16.1,-,N/A,,Scattered Clouds,270,2013-08-23 20:48:00
3:08 PM,59.0,37.4,45,30.70,10.0,NW,10.4,-,N/A,,Scattered Clouds,320,2013-08-23 21:08:00
3:28 PM,55.4,37.4,51,30.70,10.0,West,5.8,-,N/A,Thunderstorm,Scattered Clouds,260,2013-08-23 21:28:00
3:48 PM,55.4,37.4,51,30.69,10.0,WSW,6.9,-,N/A,,Mostly Cloudy,250,2013-08-23 21:48:00
4:08 PM,55.4,37.4,51,30.68,10.0,SW,9.2,-,N/A,,Mostly Cloudy,230,2013-08-23 22:08:00
4:28 PM,55.4,37.4,51,30.68,10.0,SSW,6.9,-,N/A,,Scattered Clouds,200,2013-08-23 22:28:00
4:48 PM,55.4,37.4,51,30.68,10.0,WSW,12.7,-,N/A,,Scattered Clouds,240,2013-08-23 22:48:00
5:08 PM,57.2,37.4,48,30.68,10.0,SSW,6.9,-,N/A,,Clear,210,2013-08-23 23:08:00
5:28 PM,59.0,33.8,39,30.67,10.0,South,12.7,19.6,N/A,,Clear,180,2013-08-23 23:28:00
5:48 PM,60.8,35.6,39,30.65,10.0,SSW,9.2,-,N/A,,Scattered Clouds,210,2013-08-23 23:48:00
6:08 PM,60.8,33.8,36,30.65,10.0,South,9.2,-,N/A,,Scattered Clouds,190,2013-08-24 00:08:00
6:28 PM,59.0,32.0,36,30.65,10.0,South,10.4,16.1,N/A,,Clear,180,2013-08-24 00:28:00
6:48 PM,57.2,32.0,38,30.65,10.0,South,11.5,-,N/A,,Clear,190,2013-08-24 00:48:00
7:08 PM,55.4,32.0,41,30.65,10.0,South,11.5,-,N/A,,Mostly Cloudy,180,2013-08-24 01:08:00
7:28 PM,55.4,30.2,38,30.65,10.0,South,11.5,21.9,N/A,,Scattered Clouds,170,2013-08-24 01:28:00
7:48 PM,53.6,30.2,41,30.65,10.0,South,12.7,-,N/A,,Mostly Cloudy,180,2013-08-24 01:48:00
8:08 PM,53.6,28.4,38,30.66,10.0,South,13.8,-,N/A,,Overcast,180,2013-08-24 02:08:00
8:28 PM,53.6,28.4,38,30.67,10.0,South,12.7,18.4,N/A,Thunderstorm,Mostly Cloudy,180,2013-08-24 02:28:00
8:48 PM,53.6,28.4,38,30.68,10.0,South,11.5,17.3,N/A,,Scattered Clouds,190,2013-08-24 02:48:00
9:08 PM,53.6,28.4,38,30.68,10.0,SSW,9.2,-,N/A,,Mostly Cloudy,200,2013-08-24 03:08:00
9:28 PM,51.8,32.0,47,30.68,10.0,West,10.4,-,N/A,,Scattered Clouds,260,2013-08-24 03:28:00
9:48 PM,51.8,35.6,54,30.68,10.0,West,15.0,-,N/A,,Mostly Cloudy,270,2013-08-24 03:48:00
10:08 PM,50.0,37.4,62,30.68,10.0,West,13.8,-,N/A,,Mostly Cloudy,270,2013-08-24 04:08:00
10:28 PM,50.0,35.6,58,30.68,10.0,WSW,12.7,-,N/A,,Overcast,250,2013-08-24 04:28:00
10:48 PM,50.0,37.4,62,30.68,10.0,West,15.0,-,N/A,,Scattered Clouds,260,2013-08-24 04:48:00
11:08 PM,50.0,35.6,58,30.67,10.0,WSW,16.1,-,N/A,,Clear,240,2013-08-24 05:08:00
11:28 PM,50.0,35.6,58,30.67,10.0,WSW,16.1,-,N/A,,Clear,250,2013-08-24 05:28:00
11:48 PM,48.2,37.4,66,30.67,10.0,WSW,13.8,-,N/A,,Clear,240,2013-08-24 05:48:00